Inglefield, IN

2:52 AM CST on March 05, 2015 (GMT -0600)
Clear Creek Subdivision | Change Station
CLOSE
Current Station
Personal Weather Station
Location: Evansville, IN
Elevation: 442 ft
Nearby Weather Stations
Active Advisory: Flood Warning Active Notice: Local Storm Report

Elev 442 ft 38.06 °N, 87.56 °W | Updated 22 minutes ago

Overcast
Overcast
18.0 °F
Feels Like 18 °F
N
0.0
Wind Variable Wind from NW
Gusts 5.0 mph

Today
High -- | Low -- °F
--% Chance of Precip.
Yesterday
High -- | Low -- °F
Precip. -- in
6:16 AM 5:47 PM
Full, 100% visible
Pressure 30.35 in
Visibility 10.0 miles
Clouds Overcast 6000 ft
Windchill 18 °F
Dew Point 14 °F
Humidity 84%
Rainfall in
Snow Depth Not available.
UV 0 out of 12
Pollen .70 out of 12
Air Quality Not available.
Flu Activity Not available.
METAR KEVV 050754Z AUTO 36011G17KT 10SM OVC060 M07/M14 A3033 RMK AO2 SLP278 T10671139 $

More Conditions Fewer Conditions

Pressure 30.35 in
Visibility 10.0 miles
Clouds Overcast 6000 ft
Windchill 18 °F
Dew Point 14 °F
Humidity 84%
Rainfall in
Snow Depth Not available.
UV 0 out of 12
Pollen .70 out of 12
Air Quality Not available.
Flu Activity Not available.
METAR KEVV 050754Z AUTO 36011G17KT 10SM OVC060 M07/M14 A3033 RMK AO2 SLP278 T10671139 $

More Conditions Fewer Conditions

10-Day Weather Forecast

Almanac

Astronomy

Mar. 05, 2015 Rise Set
Actual Time
Civil Twilight
Nautical Twilight
Astronomical Twilight
Moon
Length of Visible Light
Length of Day
Tomorrow will be .
, % of the Moon is Illuminated

Today's Extremes

State Highs State Lows

Community

WunderPhotos

Upload Photos

1,802,704 photos uploaded!

WunderBlogs® & News

Nearby

Air Quality

  Air Quality AQ Index Pollutant
Not available.

Snow Depth

Station Depth Elevation

Earthquake Activity

City Distance Mag. Time & Date
Minimum magnitude displayed is 2.5.

Coastal Water Temperatures

Place Temperature

Nearby Weather Stations

Flood Warning
Statement as of 9:18 PM CST on March 04, 2015

The Flood Warning continues for
the Ohio River at Mount Vernon
* from Friday evening until further notice.
* At 6:00 am Wednesday the stage was 25.6 feet.
* Flood stage is 35.0 feet.
* Minor flooding is forecast.
* Forecast... rise above flood stage by Friday before midnight and
continue to rise to near 41.8 feet by Thursday early afternoon.
* Impact... at 40.0 feet... farm land and some main roads are flooded in
places southwest and west of Mt. Vernon.


Lat... Lon 3792 8796 3780 8784 3781 8769 3796 8770
      3798 8784




918 PM CST Wed Mar 4 2015

The Flood Warning continues for
the Ohio River at Newburgh dam
* from late Thursday night to Saturday March 14.
* At 7:00 PM Wednesday the stage was 27.7 feet.
* Flood stage is 38.0 feet.
* Minor flooding is forecast.
* Impact... at 46.0 feet... Highway 662 near the old lock and dam 47
begins to flood. This is approximately 1/2 mile downstream from the
current lock and dam.


Lat... Lon 3801 8745 3787 8745 3780 8728 3790 8721